createdAt,value
2016-04-20T08:27:17.047Z,17.2
2016-04-20T08:28:16.956Z,16.86
2016-04-20T08:29:16.943Z,16.56
2016-04-20T08:30:16.930Z,16.33
2016-04-20T08:31:16.933Z,16.15
2016-04-20T08:32:16.888Z,15.93
2016-04-20T08:33:16.891Z,15.68
2016-04-20T08:34:18.285Z,15.49
2016-04-20T08:35:16.849Z,16.15
2016-04-20T08:36:16.821Z,16.9
2016-04-20T08:37:16.808Z,16.88
2016-04-20T08:38:16.810Z,16.5
2016-04-20T08:39:16.767Z,16.25
2016-04-20T08:40:16.754Z,15.86
2016-04-20T08:41:16.726Z,15.76
2016-04-20T08:42:16.712Z,15.64
2016-04-20T08:43:16.731Z,15.45
2016-04-20T08:44:16.671Z,15.39
2016-04-20T08:45:16.659Z,15.2
2016-04-20T08:46:16.645Z,14.98
2016-04-20T08:47:16.632Z,14.95
2016-04-20T08:48:16.604Z,14.87
2016-04-20T08:49:16.576Z,14.65
2016-04-20T08:50:16.562Z,14.52
2016-04-20T08:51:16.534Z,14.5
2016-04-20T08:52:16.536Z,14.49
2016-04-20T08:53:16.508Z,14.42
2016-04-20T08:54:16.464Z,14.37
2016-04-20T08:55:16.466Z,14.28
2016-04-20T08:56:16.438Z,14.16
2016-04-20T08:57:16.408Z,14.09
2016-04-20T08:58:16.397Z,13.95
2016-04-20T08:59:16.383Z,14.06
2016-04-20T09:00:16.355Z,13.76
2016-04-20T09:01:16.342Z,13.73
2016-04-20T09:02:16.313Z,13.69
2016-04-20T09:03:16.128Z,13.62
2016-04-20T09:04:16.255Z,13.59
2016-04-20T09:05:16.258Z,13.56
2016-04-20T09:06:16.229Z,13.54
2016-04-20T09:07:16.202Z,13.55
2016-04-20T09:08:16.188Z,13.59
2016-04-20T09:09:16.160Z,13.44
2016-04-20T09:10:16.132Z,13.56
2016-04-20T09:11:15.963Z,13.52
2016-04-20T09:12:16.106Z,13.7
2016-04-20T09:13:16.077Z,13.71
2016-04-20T09:14:16.065Z,13.83
2016-04-20T09:15:16.035Z,13.91
2016-04-20T09:16:16.023Z,13.87
2016-04-20T09:17:15.994Z,13.8
2016-04-20T09:18:15.965Z,13.69
2016-04-20T09:19:15.953Z,13.58
2016-04-20T09:20:15.940Z,13.58
2016-04-20T09:21:15.911Z,13.47
2016-04-20T09:22:15.736Z,13.58
2016-04-20T09:23:15.869Z,13.43
2016-04-20T09:24:15.841Z,13.44
2016-04-20T09:25:15.811Z,13.33
2016-04-20T09:26:15.799Z,13.2
2016-04-20T09:27:15.785Z,13.21
2016-04-20T09:28:15.757Z,13.22
2016-04-20T09:29:15.760Z,13.06
2016-04-20T09:30:15.716Z,13.02
2016-04-20T09:31:15.687Z,13.11
2016-04-20T09:32:15.674Z,13.12
2016-04-20T09:33:15.645Z,13.24
2016-04-20T09:34:15.648Z,13.36
2016-04-20T09:35:15.604Z,13.27
2016-04-20T09:36:15.590Z,13.24
2016-04-20T09:37:15.578Z,13.32
2016-04-20T09:38:15.549Z,13.58
2016-04-20T09:39:15.537Z,13.54
2016-04-20T09:40:15.508Z,13.58
2016-04-20T09:41:15.479Z,13.59
2016-04-20T09:42:15.451Z,13.71
2016-04-20T09:43:15.453Z,13.69
2016-04-20T09:44:15.409Z,13.63
2016-04-20T09:45:15.396Z,13.67
2016-04-20T09:46:15.383Z,13.56
2016-04-20T09:47:15.355Z,13.59
2016-04-20T09:48:15.342Z,13.54
2016-04-20T09:49:15.314Z,13.52
2016-04-20T09:50:15.300Z,13.59
2016-04-20T09:51:15.272Z,13.56
2016-04-20T09:52:15.243Z,13.65
2016-04-20T09:53:15.230Z,13.67
2016-04-20T09:54:15.202Z,13.63
2016-04-20T09:55:15.189Z,13.63
2016-04-20T09:56:15.160Z,13.62
2016-04-20T09:57:15.163Z,13.73
2016-04-20T09:58:15.119Z,13.67
2016-04-20T09:59:15.090Z,13.81
2016-04-20T10:00:15.077Z,13.81
2016-04-20T10:01:15.064Z,13.71
2016-04-20T10:02:15.035Z,13.76
2016-04-20T10:03:15.007Z,13.77
2016-04-20T10:04:14.994Z,13.81
2016-04-20T10:05:14.965Z,13.74
2016-04-20T10:06:15.046Z,13.51
2016-04-20T10:07:14.923Z,13.4
2016-04-20T10:08:14.895Z,13.4
2016-04-20T10:09:14.883Z,13.33
2016-04-20T10:10:14.886Z,13.07
2016-04-20T10:11:14.826Z,13.07
2016-04-20T10:12:14.828Z,13.02
2016-04-20T10:13:14.800Z,12.99
2016-04-20T10:14:14.772Z,12.89
2016-04-20T10:15:14.759Z,12.93
2016-04-20T10:16:14.745Z,12.87
2016-04-20T10:17:14.701Z,13
2016-04-20T10:18:14.689Z,13.07
2016-04-20T10:19:14.691Z,13.03
2016-04-20T10:20:14.647Z,13.17
2016-04-20T10:21:14.634Z,13.06
2016-04-20T10:22:14.605Z,13.06
2016-04-20T10:23:14.577Z,13.15
2016-04-20T10:24:14.549Z,13.03
2016-04-20T10:25:14.535Z,13.06
2016-04-20T10:26:14.507Z,13.04
2016-04-20T10:27:14.493Z,13
2016-04-20T10:28:14.465Z,12.89
2016-04-20T10:29:14.452Z,13.02
2016-04-20T10:30:14.408Z,12.93
2016-04-20T10:31:14.410Z,12.95
2016-04-20T10:32:14.382Z,13.04
2016-04-20T10:33:14.354Z,13.09
2016-04-20T10:34:14.341Z,12.95
2016-04-20T10:35:14.469Z,12.78
2016-04-20T10:36:14.284Z,13
2016-04-20T10:37:14.286Z,12.92
2016-04-20T10:38:14.242Z,12.99
2016-04-20T10:39:14.089Z,13.02
2016-04-20T10:40:14.200Z,12.97
2016-04-20T10:41:14.188Z,13.03
2016-04-20T10:42:14.003Z,12.87
2016-04-20T10:43:14.131Z,12.87
2016-04-20T10:44:14.117Z,13.03
2016-04-20T10:45:14.089Z,13.11
2016-04-20T10:46:14.061Z,12.99
2016-04-20T10:47:14.048Z,13.03
2016-04-20T10:48:14.019Z,13.18
2016-04-20T10:49:14.006Z,13.14
2016-04-20T10:50:14.024Z,13.18
2016-04-20T10:51:13.964Z,13.2
2016-04-20T10:52:13.952Z,13.15
2016-04-20T10:53:13.922Z,13.09
2016-04-20T10:54:13.910Z,13.14
2016-04-20T10:55:13.866Z,13.06
2016-04-20T10:56:13.853Z,13.09
2016-04-20T10:57:13.824Z,13.07
2016-04-20T10:58:13.811Z,13.06
2016-04-20T10:59:13.798Z,13.09
2016-04-20T11:00:13.754Z,13.04
2016-04-20T11:01:13.726Z,13.09
2016-04-20T11:02:13.713Z,13.15
2016-04-20T11:03:13.685Z,13.15
2016-04-20T11:04:13.671Z,13.21
2016-04-20T11:05:13.752Z,13.02
2016-04-20T11:06:13.629Z,13.06
2016-04-20T11:07:13.601Z,13.07
2016-04-20T11:08:13.573Z,13.21
2016-04-20T11:09:13.560Z,13.22
2016-04-20T11:10:13.531Z,13.07
2016-04-20T11:11:13.518Z,13.12
2016-04-20T11:12:13.490Z,13.36
2016-04-20T11:13:13.477Z,13.22
2016-04-20T11:14:13.448Z,13.33
2016-04-20T11:15:13.420Z,13.29
2016-04-20T11:16:13.406Z,13.24
2016-04-20T11:17:13.378Z,13.3
2016-04-20T11:18:13.350Z,13.33
2016-04-20T11:19:13.337Z,13.3
2016-04-20T11:20:13.356Z,13.33
2016-04-20T11:21:13.295Z,13.36
2016-04-20T11:22:13.111Z,13.46
2016-04-20T11:23:13.253Z,13.43
2016-04-20T11:24:13.616Z,13.54
2016-04-20T11:25:13.947Z,13.58
2016-04-20T11:26:13.183Z,13.56
2016-04-20T11:27:13.155Z,13.73
2016-04-20T11:28:13.141Z,13.73
2016-04-20T11:29:13.113Z,13.58
2016-04-20T11:30:13.101Z,13.3
2016-04-20T11:31:13.072Z,13.56
2016-04-20T11:32:13.075Z,13.56
2016-04-20T11:33:13.016Z,13.58
2016-04-20T11:34:13.018Z,13.63
2016-04-20T11:35:12.849Z,13.54
2016-04-20T11:36:12.960Z,13.46
2016-04-20T11:37:12.948Z,13.51
2016-04-20T11:38:12.919Z,13.55
2016-04-20T11:39:12.907Z,13.47
2016-04-20T11:40:12.878Z,13.37
2016-04-20T11:41:12.849Z,13.43
2016-04-20T11:42:12.820Z,13.4
2016-04-20T11:43:12.823Z,13.33
2016-04-20T11:44:12.778Z,13.25
2016-04-20T11:45:12.767Z,13.36
2016-04-20T11:46:12.737Z,13.24
2016-04-20T11:47:12.724Z,13.27
2016-04-20T11:48:12.696Z,13.21
2016-04-20T11:49:12.667Z,13.14
2016-04-20T11:50:12.655Z,13.2
2016-04-20T11:51:12.642Z,13.22
2016-04-20T11:52:12.613Z,13.33
2016-04-20T11:53:12.584Z,13.37
2016-04-20T11:54:12.572Z,13.44
2016-04-20T11:55:12.543Z,13.47
2016-04-20T11:56:12.514Z,13.38
2016-04-20T11:57:12.501Z,13.47
2016-04-20T11:58:12.488Z,13.44
2016-04-20T11:59:12.445Z,13.46
2016-04-20T12:00:12.432Z,13.51
2016-04-20T12:01:12.435Z,13.38
2016-04-20T12:02:12.374Z,13.37
2016-04-20T12:03:12.360Z,13.47
2016-04-20T12:04:12.348Z,13.32
2016-04-20T12:05:12.336Z,13.32
2016-04-20T12:06:12.291Z,13.3
2016-04-20T12:07:12.279Z,13.4
2016-04-20T12:08:12.249Z,13.43
2016-04-20T12:09:12.237Z,13.44
2016-04-20T12:10:12.223Z,13.4
2016-04-20T12:11:12.179Z,13.49
2016-04-20T12:12:12.168Z,13.44
2016-04-20T12:13:12.138Z,13.54
2016-04-20T12:14:12.126Z,13.55
2016-04-20T12:15:12.097Z,13.54
2016-04-20T12:16:12.083Z,13.56
2016-04-20T12:17:12.056Z,13.58
2016-04-20T12:18:12.043Z,13.54
2016-04-20T12:19:12.014Z,13.52
2016-04-20T12:20:11.986Z,13.59
2016-04-20T12:21:11.956Z,13.52
2016-04-20T12:22:11.944Z,13.74
2016-04-20T12:23:11.915Z,13.63
2016-04-20T12:24:11.902Z,13.63
2016-04-20T12:25:11.874Z,13.7
2016-04-20T12:26:11.860Z,13.65
2016-04-20T12:27:11.832Z,13.67
2016-04-20T12:28:11.835Z,13.63
2016-04-20T12:29:11.791Z,13.56
2016-04-20T12:30:11.762Z,13.58
2016-04-20T12:31:11.750Z,13.56
2016-04-20T12:32:11.720Z,13.61
2016-04-20T12:33:11.707Z,13.55
2016-04-20T12:34:11.679Z,13.56
2016-04-20T12:35:11.666Z,13.7
2016-04-20T12:36:11.622Z,13.63
2016-04-20T12:37:11.610Z,13.59
2016-04-20T12:38:11.580Z,13.52
2016-04-20T12:39:11.568Z,13.43
2016-04-20T12:40:11.555Z,13.62
2016-04-20T12:41:11.543Z,13.54
2016-04-20T12:42:11.498Z,13.63
2016-04-20T12:43:11.484Z,13.73
2016-04-20T12:44:11.456Z,13.7
2016-04-20T12:45:11.443Z,13.7
2016-04-20T12:46:11.415Z,13.67
2016-04-20T12:47:11.387Z,13.69
2016-04-20T12:48:11.373Z,13.69
2016-04-20T12:49:11.345Z,13.58
2016-04-20T12:50:11.331Z,13.61
2016-04-20T12:51:11.303Z,13.67
2016-04-20T12:52:11.275Z,13.76
2016-04-20T12:53:11.261Z,13.71
2016-04-20T12:54:11.248Z,13.73
2016-04-20T12:55:11.220Z,13.69
2016-04-20T12:56:11.192Z,13.81
2016-04-20T12:57:11.178Z,13.73
2016-04-20T12:58:11.166Z,13.73
2016-04-20T12:59:11.137Z,13.74
2016-04-20T13:00:11.108Z,13.74
2016-04-20T13:01:11.095Z,13.77
2016-04-20T13:02:11.066Z,13.81
2016-04-20T13:03:11.039Z,13.79
2016-04-20T13:04:11.025Z,13.84
2016-04-20T13:05:10.997Z,13.79
2016-04-20T13:06:10.984Z,13.84
2016-04-20T13:07:10.955Z,13.76
2016-04-20T13:08:10.927Z,13.81
2016-04-20T13:09:10.899Z,13.73
2016-04-20T13:10:10.713Z,13.73
2016-04-20T13:11:10.872Z,13.77
2016-04-20T13:12:10.843Z,13.84
2016-04-20T13:13:10.831Z,13.8
2016-04-20T13:14:10.802Z,13.83
2016-04-20T13:15:10.774Z,13.87
2016-04-20T13:16:10.745Z,13.8
2016-04-20T13:17:10.732Z,13.95
2016-04-20T13:18:10.548Z,13.95
2016-04-20T13:19:10.690Z,13.94
2016-04-20T13:20:10.662Z,13.96
2016-04-20T13:21:10.650Z,13.92
2016-04-20T13:22:10.620Z,13.92
2016-04-20T13:23:10.592Z,13.95
2016-04-20T13:24:10.578Z,14.01
2016-04-20T13:25:10.566Z,14.01
2016-04-20T13:26:10.538Z,13.96
2016-04-20T13:27:10.509Z,13.94
2016-04-20T13:28:10.497Z,14.09
2016-04-20T13:29:10.467Z,14.06
2016-04-20T13:30:10.455Z,14.04
2016-04-20T13:31:10.441Z,14.04
2016-04-20T13:32:10.414Z,13.99
2016-04-20T13:33:10.385Z,14.12
2016-04-20T13:34:10.356Z,14.21
2016-04-20T13:35:10.343Z,14.19
2016-04-20T13:36:10.315Z,14.17
2016-04-20T13:37:10.285Z,14.17
2016-04-20T13:38:10.274Z,14.2
2016-04-20T13:39:10.244Z,14.2
2016-04-20T13:40:10.232Z,14.24
2016-04-20T13:41:10.219Z,14.24
2016-04-20T13:42:10.190Z,14.24
2016-04-20T13:43:10.161Z,14.19
2016-04-20T13:44:10.149Z,14.19
2016-04-20T13:45:10.120Z,14.24
2016-04-20T13:46:10.123Z,14.29
2016-04-20T13:47:10.078Z,14.28
2016-04-20T13:48:10.051Z,14.37
2016-04-20T13:49:10.053Z,14.32
2016-04-20T13:50:10.009Z,14.28
2016-04-20T13:51:09.995Z,14.27
2016-04-20T13:52:09.984Z,14.25
2016-04-20T13:53:09.954Z,14.2
2016-04-20T13:54:09.925Z,14.21
2016-04-20T13:55:09.912Z,14.14
2016-04-20T13:56:09.884Z,14.2
2016-04-20T13:57:09.871Z,14.28
2016-04-20T13:58:09.843Z,14.29
2016-04-20T13:59:09.814Z,14.29
2016-04-20T14:00:09.786Z,14.32
2016-04-20T14:01:09.773Z,14.35
2016-04-20T14:02:09.760Z,14.37
2016-04-20T14:03:09.747Z,14.39
2016-04-20T14:04:09.718Z,14.42
2016-04-20T14:05:10.471Z,14.38
2016-04-20T14:06:09.598Z,14.32
2016-04-20T14:07:09.649Z,14.39
2016-04-20T14:08:09.635Z,14.38
2016-04-20T14:09:09.622Z,14.42
2016-04-20T14:10:09.578Z,14.43
2016-04-20T14:11:09.565Z,14.34
2016-04-20T14:12:09.537Z,14.39
2016-04-20T14:13:09.524Z,14.28
2016-04-20T14:14:09.527Z,14.2
2016-04-20T14:15:09.466Z,14.31
2016-04-20T14:16:09.453Z,14.27
2016-04-20T14:17:09.440Z,14.27
2016-04-20T14:18:09.428Z,14.25
2016-04-20T14:19:09.384Z,14.27
2016-04-20T14:20:09.371Z,14.38
2016-04-20T14:21:09.373Z,14.44
2016-04-20T14:22:09.361Z,14.46
2016-04-20T14:23:09.317Z,14.46
2016-04-20T14:24:09.288Z,14.56
2016-04-20T14:25:09.260Z,14.54
2016-04-20T14:26:09.247Z,14.5
2016-04-20T14:27:09.218Z,14.57
2016-04-20T14:28:09.206Z,14.62
2016-04-20T14:29:09.193Z,14.62
2016-04-20T14:30:09.165Z,14.65
2016-04-20T14:31:09.135Z,14.62
2016-04-20T14:32:09.122Z,14.62
2016-04-20T14:33:09.094Z,14.67
2016-04-20T14:34:09.081Z,14.61
2016-04-20T14:35:09.068Z,14.67
2016-04-20T14:36:09.039Z,14.68
2016-04-20T14:37:09.011Z,14.65
2016-04-20T14:38:08.983Z,14.68
2016-04-20T14:39:08.970Z,14.81
2016-04-20T14:40:08.941Z,14.78
2016-04-20T14:41:08.928Z,14.78
2016-04-20T14:42:08.900Z,14.74
2016-04-20T14:43:08.886Z,14.71
2016-04-20T14:44:08.874Z,14.71
2016-04-20T14:45:08.845Z,14.72
2016-04-20T14:46:08.817Z,14.61
2016-04-20T14:47:08.803Z,14.68
2016-04-20T14:48:10.869Z,14.68
2016-04-20T14:49:08.747Z,14.75
2016-04-20T14:50:10.436Z,14.9
2016-04-20T14:51:09.783Z,14.88
2016-04-20T14:52:08.691Z,14.91
2016-04-20T14:53:08.679Z,14.87
2016-04-20T14:54:08.651Z,14.84
2016-04-20T14:55:08.622Z,14.78
2016-04-20T14:56:08.609Z,14.78
2016-04-20T14:57:08.596Z,14.84
2016-04-20T14:58:08.568Z,14.9
2016-04-20T14:59:08.555Z,14.81
2016-04-20T15:00:08.526Z,14.86
2016-04-20T15:01:08.498Z,14.81
2016-04-20T15:02:08.484Z,14.81
2016-04-20T15:03:08.456Z,14.78
2016-04-20T15:04:08.442Z,14.75
2016-04-20T15:05:08.414Z,14.65
2016-04-20T15:06:08.401Z,14.8
2016-04-20T15:07:08.389Z,14.81
2016-04-20T15:08:08.360Z,14.9
2016-04-20T15:09:08.332Z,14.81
2016-04-20T15:10:08.303Z,14.9
2016-04-20T15:11:08.290Z,14.88
2016-04-20T15:12:08.277Z,14.95
2016-04-20T15:13:08.248Z,14.9
2016-04-20T15:14:08.219Z,14.94
2016-04-20T15:15:08.207Z,14.9
2016-04-20T15:16:08.210Z,14.91
2016-04-20T15:17:08.165Z,14.88
2016-04-20T15:18:08.136Z,14.86
2016-04-20T15:19:08.108Z,14.88
2016-04-20T15:20:08.111Z,14.93
2016-04-20T15:21:08.082Z,14.83
2016-04-20T15:22:08.054Z,14.86
2016-04-20T15:23:08.041Z,14.87
2016-04-20T15:24:08.012Z,14.94
2016-04-20T15:25:07.984Z,14.86
2016-04-20T15:26:07.971Z,14.98
2016-04-20T15:27:07.957Z,14.93
2016-04-20T15:28:07.930Z,14.9
2016-04-20T15:29:07.932Z,14.87
2016-04-20T15:30:07.904Z,14.88
2016-04-20T15:31:07.859Z,14.91
2016-04-20T15:32:07.862Z,14.84
2016-04-20T15:33:07.834Z,14.87
2016-04-20T15:34:07.820Z,14.84
2016-04-20T15:35:07.807Z,14.81
2016-04-20T15:36:07.767Z,14.78
2016-04-20T15:37:07.739Z,14.75
2016-04-20T15:38:07.742Z,14.78
2016-04-20T15:39:07.697Z,14.84
2016-04-20T15:40:07.686Z,14.93
2016-04-20T15:41:07.656Z,14.88
2016-04-20T15:42:07.644Z,14.94
2016-04-20T15:43:07.616Z,14.87
2016-04-20T15:44:07.603Z,14.9
2016-04-20T15:45:07.574Z,14.83
2016-04-20T15:46:07.561Z,14.88
2016-04-20T15:47:07.533Z,14.86
2016-04-20T15:48:07.520Z,14.8
2016-04-20T15:49:07.491Z,14.87
2016-04-20T15:50:07.478Z,14.94
2016-04-20T15:51:07.465Z,14.84
2016-04-20T15:52:07.436Z,14.86
2016-04-20T15:53:07.408Z,14.8
2016-04-20T15:54:07.379Z,14.81
2016-04-20T15:55:07.366Z,14.83
2016-04-20T15:56:07.353Z,14.75
2016-04-20T15:57:07.324Z,14.74
2016-04-20T15:58:07.349Z,14.75
2016-04-20T15:59:07.362Z,14.69
2016-04-20T16:00:07.391Z,14.83
2016-04-20T16:01:07.404Z,14.75
2016-04-20T16:02:07.416Z,14.78
2016-04-20T16:03:07.427Z,14.78
2016-04-20T16:04:07.446Z,14.8
2016-04-20T16:05:07.417Z,14.71
2016-04-20T16:06:51.520Z,14.65
2016-04-20T16:07:07.238Z,14.62
2016-04-20T16:08:07.378Z,14.6
2016-04-20T16:09:07.058Z,14.65
2016-04-20T16:10:07.192Z,14.64
2016-04-20T16:11:07.340Z,14.71
2016-04-20T16:12:07.302Z,14.68
2016-04-20T16:13:07.292Z,14.62
2016-04-20T16:14:07.266Z,14.64
2016-04-20T16:15:07.255Z,14.62
2016-04-20T16:16:07.245Z,14.53
2016-04-20T16:17:07.217Z,14.53
2016-04-20T16:18:07.190Z,14.54
2016-04-20T16:19:07.179Z,14.56
2016-04-20T16:20:07.166Z,14.56
2016-04-20T16:21:07.139Z,14.52
2016-04-20T16:22:07.126Z,14.62
2016-04-20T16:23:07.099Z,14.5
2016-04-20T16:24:07.070Z,14.5
2016-04-20T16:25:07.057Z,14.49
2016-04-20T16:26:07.044Z,14.43
2016-04-20T16:27:07.001Z,14.39
2016-04-20T16:28:06.988Z,14.49
2016-04-20T16:29:06.960Z,14.49
2016-04-20T16:30:06.947Z,14.42
2016-04-20T16:31:06.934Z,14.42
2016-04-20T16:32:06.921Z,14.38
2016-04-20T16:33:06.893Z,14.21
2016-04-20T16:34:06.863Z,14.25
2016-04-20T16:35:06.835Z,14.31
2016-04-20T16:36:06.807Z,14.25
2016-04-20T16:37:06.793Z,14.25
2016-04-20T16:38:06.781Z,14.28
2016-04-20T16:39:06.768Z,14.31
2016-04-20T16:40:06.740Z,14.31
2016-04-20T16:41:06.710Z,14.27
2016-04-20T16:42:06.682Z,14.17
2016-04-20T16:43:06.685Z,14.17
2016-04-20T16:44:06.687Z,14.24
2016-04-20T16:45:06.643Z,14.06
2016-04-20T16:46:06.615Z,14.06
2016-04-20T16:47:06.586Z,14.16
2016-04-20T16:48:06.573Z,14.09
2016-04-20T16:49:06.561Z,14.02
2016-04-20T16:50:06.517Z,14.04
2016-04-20T16:51:06.504Z,14.07
2016-04-20T16:52:06.475Z,14.06
2016-04-20T16:53:06.462Z,13.96
2016-04-20T16:54:06.433Z,14.01
2016-04-20T16:55:06.405Z,13.95
2016-04-20T16:56:06.392Z,13.92
2016-04-20T16:57:06.363Z,13.92
2016-04-20T16:58:06.350Z,13.84
2016-04-20T16:59:06.322Z,13.89
2016-04-20T17:00:06.325Z,13.88
2016-04-20T17:01:06.280Z,13.92
2016-04-20T17:02:06.267Z,13.83
2016-04-20T17:03:06.238Z,13.83
2016-04-20T17:04:06.226Z,13.83
2016-04-20T17:05:06.197Z,13.81
2016-04-20T17:06:06.169Z,13.74
2016-04-20T17:07:06.140Z,13.71
2016-04-20T17:08:06.002Z,13.67
2016-04-20T17:09:06.115Z,13.63
2016-04-20T17:10:06.085Z,13.63
2016-04-20T17:11:06.073Z,13.67
2016-04-20T17:12:06.060Z,13.61
2016-04-20T17:13:06.016Z,13.54
2016-04-20T17:14:06.003Z,13.56
2016-04-20T17:15:05.990Z,13.58
2016-04-20T17:16:05.962Z,13.51
2016-04-20T17:17:05.933Z,13.51
2016-04-20T17:18:05.904Z,13.43
2016-04-20T17:19:05.891Z,13.37
2016-04-20T17:20:05.894Z,13.4
2016-04-20T17:21:05.850Z,13.33
2016-04-20T17:22:05.821Z,13.33
2016-04-20T17:23:05.809Z,13.29
2016-04-20T17:24:05.780Z,13.3
2016-04-20T17:25:05.767Z,13.24
2016-04-20T17:26:05.723Z,13.22
2016-04-20T17:27:05.725Z,13.15
2016-04-20T17:28:05.696Z,13.2
2016-04-20T17:29:05.668Z,13.15
2016-04-20T17:30:05.500Z,13.2
2016-04-20T17:31:05.627Z,13.15
2016-04-20T17:32:05.613Z,13.09
2016-04-20T17:33:05.601Z,13.03
2016-04-20T17:34:05.557Z,13.09
2016-04-20T17:35:05.544Z,12.99
2016-04-20T17:36:05.547Z,12.99
2016-04-20T17:37:05.533Z,13.07
2016-04-20T17:38:05.474Z,12.97
2016-04-20T17:39:05.460Z,12.87
2016-04-20T17:40:05.432Z,12.96
2016-04-20T17:41:05.404Z,12.93
2016-04-20T17:42:05.375Z,12.81
2016-04-20T17:43:05.347Z,12.78
2016-04-20T17:44:05.334Z,12.77
2016-04-20T17:45:05.305Z,12.75
2016-04-20T17:46:05.293Z,12.67
2016-04-20T17:47:05.279Z,12.6
2016-04-20T17:48:05.251Z,12.69
2016-04-20T17:49:05.237Z,12.66
2016-04-20T17:50:05.194Z,12.63
2016-04-20T17:51:05.181Z,12.56
2016-04-20T17:52:05.184Z,12.59
2016-04-20T17:53:04.967Z,12.46
2016-04-20T17:54:07.101Z,12.39
2016-04-20T17:55:05.088Z,12.42
2016-04-20T17:56:05.059Z,12.3
2016-04-20T17:57:04.906Z,12.46
2016-04-20T17:58:05.018Z,12.29
2016-04-20T17:59:05.004Z,12.33
2016-04-20T18:00:04.976Z,12.38
2016-04-20T18:01:04.947Z,12.21
2016-04-20T18:02:04.934Z,12.19
2016-04-20T18:03:04.890Z,12.24
2016-04-20T18:04:04.877Z,12.24
2016-04-20T18:05:04.850Z,12.24
2016-04-20T18:06:04.836Z,12.13
2016-04-20T18:07:04.681Z,12.23
2016-04-20T18:08:04.777Z,12.15
2016-04-20T18:09:04.765Z,12.09
2016-04-20T18:10:04.736Z,12.21
2016-04-20T18:11:04.706Z,12.11
2016-04-20T18:12:04.695Z,12.05
2016-04-20T18:13:04.681Z,12.06
2016-04-20T18:14:04.652Z,11.97
2016-04-20T18:15:04.624Z,12.02
2016-04-20T18:16:04.595Z,11.9
2016-04-20T18:17:04.571Z,11.86
2016-04-20T18:18:04.558Z,11.85
2016-04-20T18:19:04.545Z,11.71
2016-04-20T18:20:04.500Z,11.7
2016-04-20T18:21:04.473Z,11.71
2016-04-20T18:22:04.464Z,11.67
2016-04-20T18:23:04.436Z,11.53
2016-04-20T18:24:04.423Z,11.5
2016-04-20T18:25:04.378Z,11.54
2016-04-20T18:26:04.365Z,11.46
2016-04-20T18:27:04.337Z,11.41
2016-04-20T18:28:04.324Z,11.36
2016-04-20T18:29:04.295Z,11.32
2016-04-20T18:30:04.283Z,11.34
2016-04-20T18:31:04.238Z,11.29
2016-04-20T18:32:04.225Z,11.29
2016-04-20T18:33:04.197Z,11.21
2016-04-20T18:34:04.168Z,11.17
2016-04-20T18:35:04.155Z,11.19
2016-04-20T18:36:04.127Z,11.09
2016-04-20T18:37:04.114Z,11.06
2016-04-20T18:38:04.101Z,11.03
2016-04-20T18:39:04.057Z,11.01
2016-04-20T18:40:04.029Z,10.96
2016-04-20T18:41:04.016Z,10.96
2016-04-20T18:42:03.955Z,10.94
2016-04-20T18:43:03.990Z,10.94
2016-04-20T18:44:03.960Z,10.81
2016-04-20T18:45:03.932Z,10.83
2016-04-20T18:46:03.903Z,10.65
2016-04-20T18:47:03.907Z,10.66
2016-04-20T18:48:03.878Z,10.59
2016-04-20T18:49:03.834Z,10.63
2016-04-20T18:50:03.789Z,10.52
2016-04-20T18:51:03.776Z,10.47
2016-04-20T18:52:03.794Z,10.43
2016-04-20T18:53:03.735Z,10.44
2016-04-20T18:54:03.706Z,10.44
2016-04-20T18:55:03.678Z,10.39
2016-04-20T18:56:03.650Z,10.39
2016-04-20T18:57:03.636Z,10.25
2016-04-20T18:58:03.608Z,10.22
2016-04-20T18:59:03.595Z,10.24
2016-04-20T19:00:03.566Z,10.1
2016-04-20T19:01:03.539Z,10.12
2016-04-20T19:02:03.509Z,10.04
2016-04-20T19:03:03.480Z,10.1
2016-04-20T19:04:03.468Z,9.99
2016-04-20T19:05:03.439Z,10.07
2016-04-20T19:06:03.442Z,9.96
2016-04-20T19:07:03.430Z,9.86
2016-04-20T19:08:03.368Z,9.91
2016-04-20T19:09:03.340Z,9.86
2016-04-20T19:10:03.312Z,9.83
2016-04-20T19:11:03.299Z,9.7
2016-04-20T19:12:03.285Z,9.76
2016-04-20T19:13:03.243Z,9.7
2016-04-20T19:14:03.213Z,9.63
2016-04-20T19:15:03.201Z,9.67
2016-04-20T19:16:03.172Z,9.63
2016-04-20T19:17:03.143Z,9.63
2016-04-20T19:18:03.114Z,9.56
2016-04-20T19:19:03.101Z,9.58
2016-04-20T19:20:03.073Z,9.52
2016-04-20T19:21:03.045Z,9.4
2016-04-20T19:22:03.032Z,9.38
2016-04-20T19:23:02.987Z,9.34
2016-04-20T19:24:02.975Z,9.31
2016-04-20T19:25:02.945Z,9.31
2016-04-20T19:26:02.917Z,9.24
2016-04-20T19:27:02.905Z,9.28
2016-04-20T19:28:02.876Z,9.24
2016-04-20T19:29:02.831Z,9.18
2016-04-20T19:30:02.819Z,9.2
2016-04-20T19:31:02.791Z,9.2
2016-04-20T19:32:02.761Z,9.21
2016-04-20T19:33:02.750Z,9.18
2016-04-20T19:34:02.720Z,9.24
2016-04-20T19:35:02.707Z,9.24
2016-04-20T19:36:02.694Z,9.21
2016-04-20T19:37:02.650Z,9.16
2016-04-20T19:38:02.637Z,9.18
2016-04-20T19:39:02.609Z,9.15
2016-04-20T19:40:02.565Z,9.1
2016-04-20T19:41:02.552Z,9.13
2016-04-20T19:42:02.524Z,9.13
2016-04-20T19:43:02.510Z,9.16
2016-04-20T19:44:02.466Z,9.12
2016-04-20T19:45:02.453Z,9.16
2016-04-20T19:46:02.424Z,9.1
2016-04-20T19:47:02.396Z,9.12
2016-04-20T19:48:02.383Z,9.1
2016-04-20T19:49:02.354Z,9.13
2016-04-20T19:50:02.342Z,9.05
2016-04-20T19:51:02.298Z,9.2
2016-04-20T19:52:02.268Z,9.1
2016-04-20T19:53:02.240Z,9.06
2016-04-20T19:54:02.227Z,9.15
2016-04-20T19:55:02.214Z,9.18
2016-04-20T19:56:02.201Z,9.16
2016-04-20T19:57:02.142Z,9.12
2016-04-20T19:58:02.128Z,9.13
2016-04-20T19:59:02.100Z,9.1
2016-04-20T20:00:02.072Z,9.15
2016-04-20T20:01:02.043Z,9.18
2016-04-20T20:02:02.014Z,9.1
2016-04-20T20:03:02.002Z,9.09
2016-04-20T20:04:01.972Z,9.01
2016-04-20T20:05:01.945Z,9.06
2016-04-20T20:06:01.931Z,9.09
2016-04-20T20:07:01.903Z,9.01
2016-04-20T20:08:01.858Z,9.02
2016-04-20T20:09:01.846Z,9.13
2016-04-20T20:10:01.816Z,9.05
2016-04-20T20:11:01.804Z,8.99
2016-04-20T20:12:01.761Z,8.99
2016-04-20T20:13:01.746Z,8.97
2016-04-20T20:14:01.718Z,8.97
2016-04-20T20:15:01.690Z,9.05
2016-04-20T20:16:01.677Z,9.01
2016-04-20T20:17:01.649Z,8.96
2016-04-20T20:18:01.463Z,8.91
2016-04-20T20:19:01.591Z,8.91
2016-04-20T20:20:01.563Z,8.91
2016-04-20T20:21:01.534Z,8.96
2016-04-20T20:22:01.375Z,8.94
2016-04-20T20:23:01.417Z,8.81
2016-04-20T20:24:01.467Z,8.79
2016-04-20T20:25:01.438Z,8.75
2016-04-20T20:26:01.409Z,8.71
2016-04-20T20:27:01.380Z,8.83
2016-04-20T20:28:01.353Z,8.75
2016-04-20T20:29:01.339Z,8.79
2016-04-20T20:30:01.294Z,8.81
2016-04-20T20:31:01.298Z,8.78
2016-04-20T20:32:01.253Z,8.79
2016-04-20T20:33:01.225Z,8.71
2016-04-20T20:34:01.196Z,8.71
2016-04-20T20:35:01.183Z,8.71
2016-04-20T20:36:01.155Z,8.66
2016-04-20T20:37:01.126Z,8.63
2016-04-20T20:38:01.099Z,8.6
2016-04-20T20:39:01.069Z,8.68
2016-04-20T20:40:01.056Z,8.6
2016-04-20T20:41:01.012Z,8.62
2016-04-20T20:42:00.999Z,8.51
2016-04-20T20:43:00.970Z,8.57
2016-04-20T20:44:00.957Z,8.44
2016-04-20T20:45:00.929Z,8.51
2016-04-20T20:46:00.884Z,8.5
2016-04-20T20:47:00.873Z,8.45
2016-04-20T20:48:00.843Z,8.37
2016-04-20T20:49:00.814Z,8.47
2016-04-20T20:50:00.802Z,8.45
2016-04-20T20:51:00.804Z,8.37
2016-04-20T20:52:00.728Z,8.36
2016-04-20T20:53:00.700Z,8.42
2016-04-20T20:54:00.688Z,8.35
2016-04-20T20:55:00.659Z,8.29
2016-04-20T20:56:00.647Z,8.35
2016-04-20T20:57:00.617Z,8.29
2016-04-20T20:58:00.589Z,8.28
2016-04-20T20:59:00.560Z,8.26
2016-04-20T21:00:03.048Z,8.21
2016-04-20T21:01:00.519Z,8.26
2016-04-20T21:02:00.476Z,8.26
2016-04-20T21:03:00.447Z,8.15
2016-04-20T21:04:00.435Z,8.12
2016-04-20T21:05:00.406Z,8.2
2016-04-20T21:06:00.378Z,8.21
2016-04-20T21:07:00.348Z,8.18
2016-04-20T21:08:00.320Z,8.12
2016-04-20T21:09:00.291Z,8.14
2016-04-20T21:10:00.263Z,8.12
2016-04-20T21:11:00.251Z,8.11
2016-04-20T21:12:00.221Z,8.14
2016-04-20T21:13:00.177Z,8.07
2016-04-20T21:14:00.164Z,8.11
2016-04-20T21:15:00.136Z,8.1
2016-04-20T21:16:00.108Z,8.08
2016-04-20T21:17:00.078Z,7.96
2016-04-20T21:18:00.066Z,7.99
2016-04-20T21:19:00.022Z,8
2016-04-20T21:19:59.993Z,7.9
2016-04-20T21:20:59.996Z,7.93
2016-04-20T21:21:59.951Z,7.9
2016-04-20T21:22:59.923Z,7.82
2016-04-20T21:23:59.894Z,7.81
2016-04-20T21:24:59.866Z,7.79
2016-04-20T21:25:59.837Z,7.74
2016-04-20T21:26:59.824Z,7.71